ADDS METAR Data INFO
IDs: Format: Raw Decoded Include TAF

Data at: 2225 UTC 24 Jun 2018

KAIA 242153Z AUTO 34013G19KT 10SM FEW048 22/11 A2999 RMK AO2 SLP122 T02170111
KAIA 242053Z AUTO 33012KT 10SM FEW034 21/13 A2999 RMK AO2 SLP124 60002 T02110128 58010
KAIA 241953Z AUTO 31007KT 10SM SCT028 SCT038 BKN070 19/13 A3003 RMK AO2 RAE01 SLP139 P0000 T01940133
KAIA 241910Z AUTO 31007KT 10SM SCT060 BKN085 18/13 A3004 RMK AO2 LTG DSNT SE RAE01 P0000 T01780133
KAIA 241853Z AUTO 31007KT 10SM VCTS -RA FEW043 BKN075 OVC100 17/14 A3002 RMK AO2 LTG DSNT SE AND S RAB23 TSB29E52 SLP140 P0002 T01720139
KAIA 241829Z AUTO 32011KT 10SM -TSRA FEW029 FEW037 OVC075 17/13 A3003 RMK AO2 LTG DSNT S AND SW RAB23 TSB29 P0001 T01720133
KAIA 241824Z AUTO 32009KT 10SM -RA FEW029 SCT039 OVC075 18/12 A3003 RMK AO2 LTG DSNT S-W RAB23 P0000 T01780122
KAIA 241809Z AUTO 33012KT 10SM VCTS SCT032 BKN040 BKN075 18/13 A3003 RMK AO2 LTG DSNT SW T01780128
KAIA 241753Z AUTO 33010KT 10SM FEW034 18/13 A3003 RMK AO2 LTG DSNT SW SLP139 T01830128 10206 20133 53013
KAIA 241653Z AUTO 35010KT 10SM FEW030 SCT039 19/13 A3000 RMK AO2 SLP129 T01940133
KAIA 241553Z AUTO 33011KT 10SM CLR 19/14 A2999 RMK AO2 SLP125 T01940139 $
KAIA 241453Z AUTO 31011KT 10SM OVC085 17/13 A2998 RMK AO2 SLP124 T01720133 53020 $
KAIA 241353Z AUTO 30009KT 10SM BKN090 16/13 A2996 RMK AO2 SLP118 T01560133 $
KAIA 241253Z AUTO 29007KT 10SM CLR 14/13 A2992 RMK AO2 SLP102 T01440133
KAIA 241153Z AUTO 33008KT 10SM CLR 13/12 A2992 RMK AO2 SLP091 60010 70017 T01330117 10144 20122 55005
KAIA 241053Z AUTO 15005KT 10SM CLR 13/12 A2988 RMK AO2 RAB04E14 SLP079 P0000 T01280117
KAIA 240953Z AUTO 13009KT 10SM FEW080 BKN110 13/13 A2988 RMK AO2 RAE43 SLP078 P0001 T01330133
KAIA 240853Z AUTO 26012KT 10SM -RA OVC080 14/13 A2994 RMK AO2 SLP096 P0006 60009 T01390133 58001
KAIA 240753Z AUTO 29012KT 9SM -RA SCT070 OVC080 14/14 A2996 RMK AO2 LTG DSNT NE RAE0655B25 SLP106 P0003 T01390139
KAIA 240653Z AUTO 26006KT 10SM -RA BKN090 OVC110 14/14 A2994 RMK AO2 RAB0557E07B28 SLP100 P0000 T01390139 402830089
KAIA 240553Z AUTO 25007KT 10SM SCT090 OVC120 14/13 A2994 RMK AO2 SLP098 60007 T01440133 10272 20128 53021
KAIA 240453Z AUTO 30004KT 10SM FEW120 14/13 A2990 RMK AO2 SLP087 T01440133
KAIA 240353Z AUTO 31004KT 10SM CLR 14/13 A2985 RMK AO2 SLP072 T01390133
KAIA 240253Z AUTO 09005KT 10SM CLR 16/13 A2987 RMK AO2 SLP080 60007 T01560133 50007
KAIA 240204Z AUTO 07010KT 10SM FEW095 FEW120 16/13 A2987 RMK AO2 LTG DSNT E-S T01560128
KAIA 240153Z AUTO 05008KT 10SM VCTS FEW070 SCT090 BKN120 16/13 A2987 RMK AO2 PK WND 23032/0111 WSHFT 0058 LTG DSNT NE-S RAE46 TSB0058E43 SLP085 P0007 T01560128
KAIA 240149Z AUTO 04007KT 10SM VCTS FEW065 BKN090 BKN110 16/12 A2987 RMK AO2 PK WND 23032/0111 WSHFT 0058 LTG DSNT NE-S RAE46 TSB0058E43 P0007
KAIA 240118Z AUTO 26007G32KT 7SM TSRA SCT060 BKN080 OVC090 16/13 A2987 RMK AO2 PK WND 23032/0111 WSHFT 0058 LTG DSNT N AND S AND SW TSB0058 P0004 T01560128
KAIA 240109Z AUTO 24020G30KT 10SM -TSRA BKN060 BKN075 OVC090 16/12 A2987 RMK AO2 PK WND 26030/0102 WSHFT 0049 LTG DSNT ALQDS TSB0058 P0001 T01560122
KAIA 240058Z AUTO 30018G40KT 10SM -TSRA FEW075 BKN090 OVC110 17/11 A2988 RMK AO2 PK WND 29027/0057 WSHFT 0041 LTG DSNT ALQDS TSB58 PRESRR P0000 T01720111
KAIA 240053Z AUTO 33025G40KT 10SM VCTS -RA BKN090 BKN110 19/11 A2985 RMK AO2 PK WND 34040/0049 LTG DSNT SW-N RAB53 PRESRR SLP078 P0000 T01940106
KAIA 232353Z AUTO 00000KT 10SM CLR 27/09 A2975 RMK AO2 LTG DSNT NW SLP037 T02720089 10283 20250 56018
KAIA 232253Z AUTO 22005KT 10SM CLR 27/08 A2977 RMK AO2 SLP045 T02720083
KAIA 232153Z AUTO 20005KT 10SM CLR 27/08 A2978 RMK AO2 SLP048 T02720083
KAIA 232053Z AUTO 26010G16KT 10SM CLR 28/09 A2981 RMK AO2 SLP056 T02780089 58014
KAIA 231953Z AUTO 27008KT 230V300 10SM CLR 27/08 A2983 RMK AO2 SLP065 T02720083
KAIA 231853Z AUTO 35004KT 10SM CLR 26/09 A2984 RMK AO2 SLP069 T02610094
KAIA 231753Z AUTO 27013G17KT 10SM CLR 26/10 A2986 RMK AO2 SLP074 T02610100 10261 20100 56005
KAIA 231653Z AUTO 27013G18KT 10SM CLR 25/12 A2986 RMK AO2 SLP076 T02500117
KAIA 231553Z AUTO 10SM CLR 23/13 A2986 RMK AO2 SLP076 T02330128 $
KAIA 231453Z AUTO 10SM CLR 21/14 A2987 RMK AO2 SLP081 T02110144 53000 $
KAIA 231353Z AUTO 10SM CLR 17/15 A2987 RMK AO2 SLP086 T01720150 $
KAIA 231253Z AUTO 10SM CLR 13/12 A2987 RMK AO2 SLP082 T01280122 $
KAIA 231153Z AUTO 10SM CLR 10/10 A2987 RMK AO2 SLP088 70017 T01000100 10111 20089 55001 $
KAIA 231053Z AUTO 10SM CLR 10/10 A2987 RMK AO2 SLP087 T01000100 $